Muir Army Air Field (Fort Indiantown Gap) Airport Fort Indiantown Gap(Annville) US
ICAO: KMUI
IATA: MUI
Category: Medium
Scheduled Services: No

Elevation: 488 ft
TransAlt. 18000 ft.

Airport Communications:
HARRISBURG APP/DEP:118.25
CTAF:126.2
GND:121.625
FLT FLW:40.9
ARNG OPS:49.95
TWR:126.2

KMUI Zoom In..

Runways:

(A) RW 07 length 3978 ft width 98 ft
---- / hdg 70

(B) RW 25 length 3978 ft width 98 ft
---- / hdg 250

Location; KMUI
Day. 22 / Time. 21.56 Zulu
* Altimeter: 29.95
* Temperature: 08° c. 46.4°f.
* Wind from: 290° Speed 07 kn with Gusts up to 29 kn.
Dewpoint: -10° c.
Visibility: 10 Statute Miles.
Clouds: Few 5500 ft.
Clouds: Broken 7000 ft.
Clouds: Broken 8500 ft.

KMUI 222156Z 29007G29KT 10SM FEW055 BKN070 BKN085 08/M10 A2995 RMK AO2A PK WND 27029/46 SLP148 T00751099

Going to: --> -->


Wind From 290°
Speed 07 kn.

 
 
jpsmedia worldairports.se 2021   terms of use